Time;durP1;ratioP1;P1;durP2;ratioP2;P2;SDS_P1;SDS_P2;PMS_P1;PMS_P2;Temp;Humidity;BMP_temperature;BMP_pressure;BME280_temperature;BME280_humidity;BME280_pressure;Samples;Min_cycle;Max_cycle;Signal;HPM_P1;HPM_P2
2023/07/25 00:01:55;;;;;;;9.10;7.90;;;20.80;69.90;;;;;;5028064;28;20512;-77
2023/07/25 00:04:22;;;;;;;7.40;6.80;;;20.60;69.90;;;;;;5039471;28;20412;-81
2023/07/25 00:06:49;;;;;;;9.20;7.60;;;20.70;70.50;;;;;;5042135;28;20504;-79
2023/07/25 00:09:16;;;;;;;9.30;7.33;;;20.50;70.70;;;;;;5025757;28;20501;-76
2023/07/25 00:11:45;;;;;;;9.53;7.80;;;20.50;70.70;;;;;;5040660;28;20488;-78
2023/07/25 00:14:13;;;;;;;9.67;7.30;;;20.50;70.90;;;;;;5023116;28;20430;-77
2023/07/25 00:16:39;;;;;;;10.43;7.73;;;20.40;71.20;;;;;;5040644;28;20597;-78
2023/07/25 00:19:08;;;;;;;8.07;7.33;;;20.40;71.40;;;;;;5042403;28;20409;-77
2023/07/25 00:21:35;;;;;;;9.50;7.37;;;20.40;71.60;;;;;;5044213;28;20447;-78
2023/07/25 00:24:02;;;;;;;14.93;7.80;;;20.30;72.00;;;;;;5044203;28;20441;-78
2023/07/25 00:26:30;;;;;;;8.60;7.73;;;20.30;72.20;;;;;;5044055;28;20475;-79
2023/07/25 00:28:56;;;;;;;9.27;8.10;;;20.20;72.30;;;;;;5044067;28;20439;-79
2023/07/25 00:31:24;;;;;;;9.90;8.10;;;20.30;72.20;;;;;;5043965;28;20648;-78
2023/07/25 00:33:51;;;;;;;10.00;7.17;;;20.10;72.50;;;;;;5043837;28;20413;-77
2023/07/25 00:36:18;;;;;;;8.90;7.37;;;20.10;72.80;;;;;;5043572;28;20858;-79
2023/07/25 00:38:45;;;;;;;7.90;7.10;;;20.30;72.70;;;;;;5043851;28;20437;-76
2023/07/25 00:41:12;;;;;;;8.50;7.60;;;20.20;72.30;;;;;;5043571;28;20575;-78
2023/07/25 00:43:39;;;;;;;11.90;8.07;;;20.20;72.00;;;;;;5043540;28;20760;-80
2023/07/25 00:46:06;;;;;;;6.90;6.20;;;20.20;71.60;;;;;;5043578;28;20460;-78
2023/07/25 00:48:35;;;;;;;8.80;6.67;;;20.20;71.20;;;;;;5043523;28;20404;-77
2023/07/25 00:51:04;;;;;;;7.40;6.70;;;20.20;71.00;;;;;;5043695;28;20408;-76
2023/07/25 00:53:31;;;;;;;7.53;6.50;;;20.10;71.00;;;;;;5043678;28;20508;-78
2023/07/25 00:56:01;;;;;;;7.20;5.87;;;20.10;70.70;;;;;;5043443;28;20412;-77
2023/07/25 00:58:31;;;;;;;7.70;5.47;;;20.30;70.00;;;;;;5027026;28;20424;-80
2023/07/25 01:01:02;;;;;;;13.23;5.23;;;20.00;69.60;;;;;;5044100;28;20646;-77
2023/07/25 01:03:31;;;;;;;7.80;5.40;;;20.00;69.80;;;;;;5025610;28;20738;-78
2023/07/25 01:06:02;;;;;;;9.30;6.00;;;20.00;69.10;;;;;;5043153;28;20455;-78
2023/07/25 01:08:29;;;;;;;7.63;5.27;;;20.00;69.10;;;;;;5043349;28;20741;-78
2023/07/25 01:10:56;;;;;;;5.20;4.70;;;20.00;69.00;;;;;;5043369;28;20444;-79
2023/07/25 01:13:24;;;;;;;6.33;4.93;;;19.90;69.20;;;;;;5042943;28;20430;-78
2023/07/25 01:15:53;;;;;;;8.40;5.23;;;19.90;69.20;;;;;;5042949;28;20419;-79
2023/07/25 01:18:21;;;;;;;7.43;4.77;;;19.80;69.60;;;;;;5043122;28;20666;-78
2023/07/25 01:20:48;;;;;;;5.40;4.87;;;19.80;69.90;;;;;;5025365;28;20629;-78
2023/07/25 01:23:15;;;;;;;8.00;4.90;;;19.80;70.50;;;;;;5043108;28;20416;-76
2023/07/25 01:25:46;;;;;;;7.80;5.50;;;19.80;70.40;;;;;;5043345;28;20488;-78
2023/07/25 01:28:13;;;;;;;5.10;4.60;;;19.70;70.70;;;;;;5043081;28;20505;-80
2023/07/25 01:30:40;;;;;;;5.20;4.50;;;19.70;70.90;;;;;;5041860;28;20424;-77
2023/07/25 01:33:09;;;;;;;6.40;5.27;;;19.50;71.50;;;;;;5025126;28;20500;-77
2023/07/25 01:35:35;;;;;;;6.83;6.13;;;19.50;71.70;;;;;;5024992;28;20439;-78
2023/07/25 01:38:03;;;;;;;9.07;5.03;;;19.40;72.00;;;;;;5042901;28;20844;-80
2023/07/25 01:40:30;;;;;;;7.20;5.30;;;19.40;71.80;;;;;;5042542;28;20849;-79
2023/07/25 01:42:57;;;;;;;5.63;5.00;;;19.40;72.20;;;;;;5042726;28;20505;-79
2023/07/25 01:45:24;;;;;;;7.80;5.57;;;19.50;71.80;;;;;;5042048;28;20509;-77
2023/07/25 01:47:51;;;;;;;9.30;5.73;;;19.50;72.00;;;;;;5042238;28;20441;-78
2023/07/25 01:50:18;;;;;;;9.73;6.50;;;19.40;72.30;;;;;;5024659;28;20404;-77
2023/07/25 01:52:45;;;;;;;8.30;5.03;;;19.60;72.10;;;;;;5042399;28;20472;-76
2023/07/25 01:55:12;;;;;;;7.07;4.80;;;19.50;72.00;;;;;;5042248;28;20436;-79
2023/07/25 01:57:39;;;;;;;10.97;5.30;;;19.50;71.70;;;;;;5042035;28;20615;-77
2023/07/25 02:00:06;;;;;;;5.70;5.17;;;19.50;71.40;;;;;;5042151;28;20451;-76
2023/07/25 02:02:33;;;;;;;8.00;4.97;;;19.40;71.70;;;;;;5042119;28;20440;-79
2023/07/25 02:05:00;;;;;;;5.67;4.90;;;19.40;72.70;;;;;;5040546;28;20409;-78
2023/07/25 02:07:27;;;;;;;10.50;5.80;;;19.10;72.00;;;;;;5043140;28;20613;-78
2023/07/25 02:09:54;;;;;;;6.57;4.93;;;19.20;72.60;;;;;;5042351;28;20508;-77
2023/07/25 02:12:21;;;;;;;7.90;5.10;;;19.30;72.80;;;;;;5041312;28;20525;-76
2023/07/25 02:14:48;;;;;;;6.17;4.67;;;19.00;73.10;;;;;;5042048;28;20440;-78
2023/07/25 02:17:18;;;;;;;5.00;4.20;;;19.00;73.40;;;;;;5024598;28;20467;-79
2023/07/25 02:19:45;;;;;;;15.23;4.87;;;19.00;73.80;;;;;;5042402;28;20447;-77
2023/07/25 02:22:13;;;;;;;7.97;5.17;;;19.00;74.00;;;;;;5042509;28;20469;-81
2023/07/25 02:24:39;;;;;;;6.07;4.97;;;19.00;74.00;;;;;;5041716;28;20444;-77
2023/07/25 02:27:07;;;;;;;5.43;4.93;;;18.90;74.30;;;;;;5024663;28;20805;-77
2023/07/25 02:29:33;;;;;;;8.03;5.40;;;18.60;74.70;;;;;;5041900;28;20447;-80
2023/07/25 02:32:00;;;;;;;9.33;5.20;;;18.70;75.10;;;;;;5040733;28;20512;-78
2023/07/25 02:34:27;;;;;;;5.10;4.67;;;18.80;74.70;;;;;;5041919;28;20457;-77
2023/07/25 02:36:54;;;;;;;5.87;4.93;;;18.90;74.60;;;;;;5023811;28;20816;-77
2023/07/25 02:39:22;;;;;;;6.27;4.73;;;18.80;74.20;;;;;;5041636;28;20637;-78
2023/07/25 02:41:48;;;;;;;8.50;5.17;;;18.70;74.00;;;;;;5040930;28;20411;-77
2023/07/25 02:44:15;;;;;;;6.73;4.40;;;18.80;73.70;;;;;;5024013;28;20432;-77
2023/07/25 02:46:42;;;;;;;4.90;4.40;;;18.80;73.20;;;;;;5040453;28;20476;-77
2023/07/25 02:49:09;;;;;;;7.00;4.60;;;18.80;73.10;;;;;;5041714;28;20405;-78
2023/07/25 02:51:36;;;;;;;5.13;4.50;;;18.80;73.00;;;;;;5041506;28;20415;-80
2023/07/25 02:54:03;;;;;;;4.63;4.20;;;18.80;73.20;;;;;;5041434;28;20412;-80
2023/07/25 02:56:30;;;;;;;3.80;3.50;;;18.70;73.20;;;;;;5041812;28;20432;-76
2023/07/25 02:58:58;;;;;;;5.30;4.60;;;18.60;73.20;;;;;;5047748;28;20461;-78
2023/07/25 03:01:24;;;;;;;8.27;4.40;;;18.70;73.40;;;;;;5038130;28;20489;-81
2023/07/25 03:03:51;;;;;;;7.40;4.00;;;18.60;73.40;;;;;;5054362;28;20472;-79
2023/07/25 03:06:18;;;;;;;8.33;4.27;;;18.60;73.40;;;;;;5042805;28;20806;-78
2023/07/25 03:08:46;;;;;;;4.90;4.50;;;18.50;73.20;;;;;;5041458;28;20421;-78
2023/07/25 03:11:13;;;;;;;6.63;4.90;;;18.60;73.40;;;;;;5041315;28;20461;-77
2023/07/25 03:13:40;;;;;;;7.60;5.10;;;18.70;73.30;;;;;;5041465;28;20450;-81
2023/07/25 03:16:07;;;;;;;5.10;4.13;;;18.60;73.10;;;;;;5041462;28;20819;-79
2023/07/25 03:18:34;;;;;;;3.90;3.27;;;18.60;73.00;;;;;;5023977;28;20408;-78
2023/07/25 03:21:01;;;;;;;4.87;3.90;;;18.60;73.00;;;;;;5023986;28;20799;-76
2023/07/25 03:23:29;;;;;;;4.07;3.50;;;18.60;72.80;;;;;;5023817;28;20408;-77
2023/07/25 03:25:56;;;;;;;3.63;3.33;;;18.50;72.80;;;;;;5041498;28;20470;-80
2023/07/25 03:28:23;;;;;;;4.60;4.20;;;18.40;72.70;;;;;;5041317;28;20469;-77
2023/07/25 03:30:50;;;;;;;5.00;3.57;;;18.50;73.00;;;;;;5041342;28;20448;-77
2023/07/25 03:33:17;;;;;;;4.43;4.03;;;18.40;73.30;;;;;;5023808;28;20420;-78
2023/07/25 03:35:44;;;;;;;5.30;3.40;;;18.60;73.30;;;;;;5023596;28;20489;-80
2023/07/25 03:38:11;;;;;;;4.93;3.80;;;18.50;73.40;;;;;;5041343;28;20720;-77
2023/07/25 03:40:38;;;;;;;4.47;3.17;;;18.40;73.40;;;;;;5041234;28;20408;-78
2023/07/25 03:43:05;;;;;;;4.10;3.30;;;18.40;73.30;;;;;;5041504;28;20725;-77
2023/07/25 03:45:32;;;;;;;5.03;3.60;;;18.40;73.50;;;;;;5041709;28;20501;-79
2023/07/25 03:47:59;;;;;;;10.93;4.03;;;18.30;73.80;;;;;;5023661;28;20496;-77
2023/07/25 03:50:26;;;;;;;6.77;3.30;;;18.20;73.90;;;;;;5040648;28;20438;-77
2023/07/25 03:52:52;;;;;;;3.00;2.80;;;18.30;74.10;;;;;;5042240;28;20455;-77
2023/07/25 03:55:20;;;;;;;4.97;4.47;;;18.30;74.20;;;;;;5045479;28;20462;-78
2023/07/25 03:57:46;;;;;;;4.00;3.70;;;18.30;75.10;;;;;;5044953;28;20461;-77
2023/07/25 04:00:14;;;;;;;7.50;3.50;;;18.20;73.90;;;;;;5045335;28;20472;-80
2023/07/25 04:02:41;;;;;;;4.47;3.70;;;18.40;73.80;;;;;;5045116;28;20480;-80
2023/07/25 04:05:08;;;;;;;3.53;3.23;;;18.60;73.70;;;;;;5045551;28;20460;-78
2023/07/25 04:07:35;;;;;;;5.20;4.80;;;18.60;73.40;;;;;;5044854;28;20452;-78
2023/07/25 04:10:03;;;;;;;3.63;3.33;;;18.60;73.20;;;;;;5045597;28;20476;-78
2023/07/25 04:12:30;;;;;;;4.40;3.80;;;18.70;73.10;;;;;;5045385;28;20489;-78
2023/07/25 04:14:58;;;;;;;5.53;3.97;;;18.60;73.20;;;;;;5045236;28;20689;-79
2023/07/25 04:17:25;;;;;;;4.80;3.60;;;18.60;73.70;;;;;;5027253;28;20732;-77
2023/07/25 04:19:52;;;;;;;4.00;3.60;;;18.70;73.40;;;;;;5044805;28;20461;-77
2023/07/25 04:22:19;;;;;;;3.30;3.10;;;18.70;73.20;;;;;;5045269;28;20476;-78
2023/07/25 04:24:46;;;;;;;5.70;3.97;;;18.90;73.00;;;;;;5044912;28;20666;-76
2023/07/25 04:27:13;;;;;;;4.10;3.53;;;19.00;72.60;;;;;;5044812;28;20504;-79
2023/07/25 04:29:40;;;;;;;5.00;4.33;;;19.00;72.20;;;;;;5044395;28;20476;-77
2023/07/25 04:32:07;;;;;;;5.80;4.37;;;19.10;72.50;;;;;;5044768;28;20770;-79
2023/07/25 04:34:34;;;;;;;4.20;3.70;;;19.20;72.00;;;;;;5044969;28;20451;-77
2023/07/25 04:37:01;;;;;;;5.80;3.80;;;19.30;71.60;;;;;;5044124;28;20613;-76
2023/07/25 04:39:29;;;;;;;4.30;3.60;;;19.40;71.50;;;;;;5043827;28;20465;-79
2023/07/25 04:41:56;;;;;;;4.10;3.70;;;19.50;71.10;;;;;;5043127;28;20456;-77
2023/07/25 04:44:23;;;;;;;7.73;4.00;;;19.50;70.90;;;;;;5043843;28;20474;-77
2023/07/25 04:46:50;;;;;;;3.33;3.03;;;19.60;70.70;;;;;;5044210;28;20506;-77
2023/07/25 04:49:17;;;;;;;4.83;3.30;;;19.70;70.40;;;;;;5044064;28;20780;-79
2023/07/25 04:51:44;;;;;;;7.43;3.23;;;19.70;70.30;;;;;;5043650;28;20448;-78
2023/07/25 04:54:11;;;;;;;3.70;3.40;;;19.70;70.10;;;;;;5043905;28;20667;-78
2023/07/25 04:56:40;;;;;;;5.20;3.00;;;19.90;70.20;;;;;;5044175;28;20470;-76
2023/07/25 04:59:07;;;;;;;3.97;3.13;;;20.00;69.50;;;;;;5043784;28;20440;-79
2023/07/25 05:01:34;;;;;;;3.63;3.13;;;20.00;69.20;;;;;;5044013;28;20436;-78
2023/07/25 05:04:02;;;;;;;7.57;3.50;;;20.10;69.00;;;;;;5044605;28;20455;-78
2023/07/25 05:06:31;;;;;;;4.77;4.17;;;20.30;68.90;;;;;;5046563;28;20444;-80
2023/07/25 05:08:57;;;;;;;5.40;3.73;;;20.40;68.30;;;;;;5027594;28;20549;-82
2023/07/25 05:11:25;;;;;;;10.80;3.87;;;20.40;68.60;;;;;;5043153;28;20512;-77
2023/07/25 05:13:51;;;;;;;4.43;4.03;;;20.40;68.60;;;;;;5043903;28;20427;-77
2023/07/25 05:16:19;;;;;;;4.30;3.67;;;20.60;68.20;;;;;;5043908;28;20725;-78
2023/07/25 05:18:46;;;;;;;4.63;3.00;;;20.70;67.60;;;;;;5042788;28;20416;-79
2023/07/25 05:21:13;;;;;;;8.33;3.80;;;20.90;67.00;;;;;;5043237;28;20435;-77
2023/07/25 05:23:40;;;;;;;3.83;3.50;;;21.00;67.00;;;;;;5043108;28;20446;-77
2023/07/25 05:26:08;;;;;;;6.40;4.60;;;21.10;66.20;;;;;;5043054;28;20444;-79
2023/07/25 05:28:35;;;;;;;9.63;4.30;;;21.20;66.00;;;;;;5043579;28;20437;-79
2023/07/25 05:31:03;;;;;;;5.57;3.67;;;21.20;65.60;;;;;;5025863;28;20456;-77
2023/07/25 05:33:30;;;;;;;4.50;3.90;;;21.20;65.40;;;;;;5043189;28;20408;-79
2023/07/25 05:36:02;;;;;;;8.80;3.63;;;21.30;65.90;;;;;;5025520;28;20423;-79
2023/07/25 05:38:29;;;;;;;4.27;3.87;;;21.40;65.40;;;;;;5042862;28;20442;-79
2023/07/25 05:40:56;;;;;;;3.70;3.40;;;21.60;64.60;;;;;;5042543;28;20840;-77
2023/07/25 05:43:23;;;;;;;4.00;3.20;;;21.80;64.90;;;;;;5042610;28;20507;-76
2023/07/25 05:45:50;;;;;;;3.17;2.87;;;21.90;63.40;;;;;;5041294;28;20435;-77
2023/07/25 05:48:17;;;;;;;3.63;3.33;;;22.00;63.00;;;;;;5042431;28;20484;-78
2023/07/25 05:50:52;;;;;;;4.27;3.67;;;22.10;63.00;;;;;;5042947;28;20412;-81
2023/07/25 05:53:20;;;;;;;4.70;3.67;;;22.20;62.70;;;;;;5042841;28;20897;-75
2023/07/25 05:55:47;;;;;;;16.80;4.33;;;22.40;62.20;;;;;;5043148;28;20416;-78
2023/07/25 05:58:15;;;;;;;4.53;3.77;;;22.50;61.70;;;;;;5043447;28;20533;-81
2023/07/25 06:00:43;;;;;;;4.10;3.70;;;22.40;61.70;;;;;;5044102;28;20408;-76
2023/07/25 06:03:12;;;;;;;6.67;3.80;;;22.40;61.80;;;;;;5054484;28;20417;-76
2023/07/25 06:05:39;;;;;;;4.10;3.70;;;22.40;61.70;;;;;;5053734;28;20421;-80
2023/07/25 06:08:07;;;;;;;7.50;4.53;;;22.70;60.60;;;;;;5043620;28;20474;-75
2023/07/25 06:10:35;;;;;;;8.30;5.10;;;22.90;61.10;;;;;;5042427;28;20441;-77
2023/07/25 06:13:06;;;;;;;5.83;3.43;;;22.90;60.30;;;;;;5041931;28;20461;-80
2023/07/25 06:15:36;;;;;;;3.63;3.20;;;23.20;59.80;;;;;;5042721;28;20438;-80
2023/07/25 06:18:04;;;;;;;4.30;4.00;;;23.20;59.30;;;;;;5042349;28;20392;-79
2023/07/25 06:20:32;;;;;;;4.07;3.63;;;23.20;58.80;;;;;;5042109;28;20438;-80
2023/07/25 06:23:01;;;;;;;3.83;3.47;;;23.20;58.90;;;;;;5025059;28;20623;-77
2023/07/25 06:25:28;;;;;;;4.40;4.00;;;23.40;58.70;;;;;;5042399;28;20437;-77
2023/07/25 06:27:55;;;;;;;4.07;3.77;;;23.50;58.30;;;;;;5041972;28;20448;-76
2023/07/25 06:30:22;;;;;;;3.83;3.23;;;23.70;58.30;;;;;;5024317;28;20408;-77
2023/07/25 06:32:49;;;;;;;4.17;3.33;;;23.90;57.90;;;;;;5041691;28;20715;-81
2023/07/25 06:35:22;;;;;;;5.10;3.67;;;24.10;56.90;;;;;;5042059;28;20418;-78
2023/07/25 06:37:49;;;;;;;5.33;4.83;;;23.90;56.80;;;;;;5041688;28;20866;-78
2023/07/25 06:40:16;;;;;;;4.30;3.40;;;23.90;56.80;;;;;;5042235;28;20403;-77
2023/07/25 06:42:43;;;;;;;3.50;3.20;;;24.10;56.30;;;;;;5041513;28;20483;-79
2023/07/25 06:45:10;;;;;;;4.17;3.87;;;24.10;56.20;;;;;;5042034;28;20605;-79
2023/07/25 06:47:38;;;;;;;3.90;3.50;;;23.80;57.20;;;;;;5042082;28;20484;-78
2023/07/25 06:50:05;;;;;;;4.57;3.93;;;23.90;57.00;;;;;;5042391;28;20412;-76
2023/07/25 06:52:32;;;;;;;3.60;3.30;;;24.00;56.30;;;;;;5043831;28;20481;-79
2023/07/25 06:54:59;;;;;;;3.67;3.37;;;24.30;55.70;;;;;;5042213;28;20465;-78
2023/07/25 06:57:28;;;;;;;3.83;3.53;;;24.80;54.50;;;;;;5042411;28;20531;-77
2023/07/25 06:59:56;;;;;;;7.37;4.53;;;25.00;54.10;;;;;;5041034;28;20741;-74
2023/07/25 07:02:23;;;;;;;4.77;3.77;;;25.00;54.20;;;;;;5041188;28;20446;-77
2023/07/25 07:04:50;;;;;;;3.80;3.53;;;25.20;53.00;;;;;;5041638;28;20477;-77
2023/07/25 07:07:18;;;;;;;4.03;3.60;;;25.80;52.10;;;;;;5042332;28;20485;-77
2023/07/25 07:09:45;;;;;;;3.40;3.20;;;26.00;51.10;;;;;;5042260;28;20435;-78
2023/07/25 07:12:12;;;;;;;3.73;3.30;;;25.70;50.90;;;;;;5042316;28;20507;-80
2023/07/25 07:14:40;;;;;;;3.47;2.70;;;25.90;50.80;;;;;;5041562;28;20431;-80
2023/07/25 07:17:07;;;;;;;7.47;3.80;;;26.10;50.70;;;;;;5023936;28;20506;-76
2023/07/25 07:19:34;;;;;;;3.30;3.10;;;26.50;50.10;;;;;;5023288;28;20443;-76
2023/07/25 07:22:02;;;;;;;3.80;3.50;;;26.90;49.10;;;;;;5041352;28;20473;-76
2023/07/25 07:24:29;;;;;;;4.80;3.10;;;26.90;48.50;;;;;;5041600;28;20452;-78
2023/07/25 07:26:56;;;;;;;3.93;3.27;;;26.60;49.30;;;;;;5041182;28;20528;-78
2023/07/25 07:29:23;;;;;;;3.83;3.57;;;25.80;50.60;;;;;;5045055;28;20452;-80
2023/07/25 07:31:50;;;;;;;4.90;4.03;;;25.80;50.70;;;;;;5045238;28;20639;-77
2023/07/25 07:34:17;;;;;;;4.07;3.47;;;26.00;50.70;;;;;;5046110;28;20468;-79
2023/07/25 07:36:45;;;;;;;4.10;3.70;;;25.50;51.10;;;;;;5045418;28;20544;-77
2023/07/25 07:39:12;;;;;;;3.50;3.20;;;26.00;50.50;;;;;;5044381;28;20442;-78
2023/07/25 07:41:39;;;;;;;3.63;3.33;;;26.70;48.60;;;;;;5046922;28;20471;-77
2023/07/25 07:44:06;;;;;;;3.57;3.37;;;27.80;46.40;;;;;;5045990;28;20441;-79
2023/07/25 07:46:34;;;;;;;3.70;3.50;;;28.60;43.70;;;;;;5028252;28;20623;-77
2023/07/25 07:49:01;;;;;;;4.07;3.70;;;27.60;45.30;;;;;;5045388;28;20492;-78
2023/07/25 07:51:28;;;;;;;4.60;4.20;;;27.30;46.40;;;;;;5045217;28;20742;-77
2023/07/25 07:53:56;;;;;;;4.70;3.60;;;27.70;45.90;;;;;;5028165;28;20421;-78
2023/07/25 07:56:23;;;;;;;3.37;3.10;;;28.60;43.40;;;;;;5045190;28;20437;-76
2023/07/25 07:58:53;;;;;;;4.23;3.60;;;28.60;43.60;;;;;;5045292;28;20484;-78
2023/07/25 08:01:21;;;;;;;3.60;3.30;;;27.90;44.50;;;;;;5043929;28;20797;-78
2023/07/25 08:03:49;;;;;;;6.80;3.40;;;27.40;45.30;;;;;;5045089;28;20445;-79
2023/07/25 08:06:16;;;;;;;3.90;3.50;;;27.60;45.50;;;;;;5044994;28;20469;-79
2023/07/25 08:08:43;;;;;;;4.90;3.80;;;26.60;46.50;;;;;;5044265;28;20493;-77
2023/07/25 08:11:10;;;;;;;4.70;4.03;;;25.80;49.50;;;;;;5045208;28;20437;-78
2023/07/25 08:13:37;;;;;;;4.00;3.60;;;25.40;49.90;;;;;;5043643;28;20583;-77
2023/07/25 08:16:05;;;;;;;3.87;3.47;;;25.60;50.20;;;;;;5044646;28;20437;-76
2023/07/25 08:18:32;;;;;;;3.63;3.33;;;26.50;47.10;;;;;;5044731;28;20445;-78
2023/07/25 08:21:01;;;;;;;4.13;3.73;;;27.00;46.50;;;;;;5043343;28;20456;-79
2023/07/25 08:23:28;;;;;;;3.20;3.00;;;26.80;46.90;;;;;;5044844;28;20513;-77
2023/07/25 08:25:56;;;;;;;4.47;4.17;;;26.90;46.60;;;;;;5044900;28;20436;-77
2023/07/25 08:28:23;;;;;;;3.63;3.33;;;26.80;47.00;;;;;;5044539;28;20560;-77
2023/07/25 08:31:01;;;;;;;3.10;2.90;;;27.00;46.70;;;;;;5027541;28;20438;-77
2023/07/25 08:33:31;;;;;;;3.67;3.47;;;27.00;47.20;;;;;;5044359;28;20670;-79
2023/07/25 08:35:59;;;;;;;3.33;3.13;;;27.10;46.70;;;;;;5027783;28;20418;-79
2023/07/25 08:38:27;;;;;;;3.47;3.17;;;27.00;46.30;;;;;;5044549;28;20789;-78
2023/07/25 08:41:02;;;;;;;3.70;3.40;;;27.10;46.30;;;;;;5044537;28;20513;-76
2023/07/25 08:43:35;;;;;;;4.03;3.73;;;27.40;45.80;;;;;;5044734;28;20433;-79
2023/07/25 08:46:07;;;;;;;4.80;3.10;;;27.70;45.10;;;;;;5027297;28;20621;-78
2023/07/25 08:48:40;;;;;;;3.50;3.20;;;27.40;44.90;;;;;;5026524;28;20461;-78
2023/07/25 08:51:12;;;;;;;4.13;3.60;;;27.40;45.50;;;;;;5044218;28;20480;-77
2023/07/25 08:54:01;;;;;;;3.57;3.27;;;27.40;45.60;;;;;;5043957;28;20551;-78
2023/07/25 08:56:30;;;;;;;3.07;2.87;;;27.40;45.70;;;;;;5027262;28;20430;-78
2023/07/25 08:58:58;;;;;;;3.90;3.60;;;27.80;44.90;;;;;;5044413;28;20618;-79
2023/07/25 09:01:26;;;;;;;4.10;3.40;;;28.00;44.50;;;;;;5046838;28;20438;-78
2023/07/25 09:03:55;;;;;;;3.80;3.50;;;28.40;43.70;;;;;;5040091;28;20442;-78
2023/07/25 09:06:23;;;;;;;3.57;3.27;;;29.30;42.10;;;;;;5038334;28;20444;-79
2023/07/25 09:08:50;;;;;;;4.40;4.10;;;29.30;41.70;;;;;;5044170;28;20894;-81
2023/07/25 09:11:19;;;;;;;4.50;3.97;;;28.80;41.60;;;;;;5045739;28;20430;-78
2023/07/25 09:13:49;;;;;;;3.43;3.13;;;28.00;43.20;;;;;;5044345;28;20761;-76
2023/07/25 09:16:17;;;;;;;4.20;3.80;;;28.10;43.70;;;;;;5043867;28;20512;-81
2023/07/25 09:18:44;;;;;;;2.83;2.63;;;28.40;43.40;;;;;;5043544;28;20825;-75
2023/07/25 09:21:14;;;;;;;3.20;3.00;;;28.60;41.20;;;;;;5043078;28;20509;-77
2023/07/25 09:23:51;;;;;;;5.20;3.47;;;28.70;41.30;;;;;;5043812;28;20504;-80
2023/07/25 09:26:24;;;;;;;6.20;2.73;;;29.00;41.20;;;;;;5043168;28;20445;-81
2023/07/25 09:28:55;;;;;;;3.47;3.27;;;29.00;40.80;;;;;;5043114;28;20492;-78
2023/07/25 09:31:27;;;;;;;3.80;3.50;;;28.70;42.10;;;;;;5042903;28;20453;-77
2023/07/25 09:33:55;;;;;;;3.33;3.13;;;28.60;42.30;;;;;;5043513;28;20484;-77
2023/07/25 09:36:22;;;;;;;6.43;3.70;;;28.70;41.60;;;;;;5043350;28;20512;-79
2023/07/25 09:38:54;;;;;;;3.70;3.40;;;28.00;41.20;;;;;;5042769;28;20782;-78
2023/07/25 09:41:23;;;;;;;4.10;3.80;;;27.70;42.70;;;;;;5044589;28;20414;-76
2023/07/25 09:43:51;;;;;;;4.03;3.00;;;27.20;42.90;;;;;;5042861;28;20438;-80
2023/07/25 09:46:18;;;;;;;5.20;3.50;;;27.20;44.00;;;;;;5043102;28;20505;-80
2023/07/25 09:48:50;;;;;;;3.83;3.53;;;27.20;44.70;;;;;;5042745;28;20690;-81
2023/07/25 09:51:18;;;;;;;3.60;3.37;;;26.90;44.20;;;;;;5042184;28;20444;-78
2023/07/25 09:53:53;;;;;;;3.60;3.30;;;26.50;44.00;;;;;;5043120;28;20445;-77
2023/07/25 09:56:24;;;;;;;4.80;3.30;;;26.30;44.80;;;;;;5042744;28;20413;-78
2023/07/25 09:58:52;;;;;;;3.30;3.00;;;26.50;45.40;;;;;;5043098;28;20449;-78
2023/07/25 10:01:33;;;;;;;3.60;3.30;;;26.80;44.40;;;;;;5042988;28;20414;-78
2023/07/25 10:04:02;;;;;;;4.17;3.40;;;27.30;43.60;;;;;;5043022;28;20472;-79
2023/07/25 10:06:30;;;;;;;5.07;3.80;;;27.10;43.90;;;;;;5043129;28;20461;-77
2023/07/25 10:08:58;;;;;;;4.73;4.30;;;27.30;43.80;;;;;;5025326;28;20688;-77
2023/07/25 10:11:26;;;;;;;4.97;3.63;;;27.20;43.30;;;;;;5041412;28;20512;-78
2023/07/25 10:13:53;;;;;;;4.27;3.87;;;27.40;42.70;;;;;;5042810;28;20461;-77
2023/07/25 10:16:21;;;;;;;18.33;3.60;;;27.40;42.70;;;;;;5042662;28;20437;-77
2023/07/25 10:18:58;;;;;;;3.60;3.33;;;27.70;41.80;;;;;;5041874;28;20437;-78
2023/07/25 10:21:52;;;;;;;3.77;3.50;;;27.90;41.80;;;;;;5042088;28;20482;-77
2023/07/25 10:24:20;;;;;;;3.93;3.63;;;27.40;42.60;;;;;;5042599;28;20448;-77
2023/07/25 10:26:52;;;;;;;3.60;3.30;;;27.10;43.20;;;;;;5043310;28;20785;-79
2023/07/25 10:29:43;;;;;;;5.70;5.30;;;27.20;43.50;;;;;;5042571;28;20454;-79
2023/07/25 10:32:14;;;;;;;4.13;3.73;;;27.00;43.40;;;;;;5042324;28;20442;-79
2023/07/25 10:35:03;;;;;;;7.00;3.53;;;27.40;42.50;;;;;;5025152;28;20500;-78
2023/07/25 10:37:37;;;;;;;3.63;3.30;;;27.40;42.40;;;;;;5042713;28;20419;-79
2023/07/25 10:40:10;;;;;;;3.60;3.30;;;27.80;41.80;;;;;;5042606;28;20743;-77
2023/07/25 10:42:44;;;;;;;4.40;4.00;;;28.20;41.50;;;;;;5049295;28;20437;-77
2023/07/25 10:45:33;;;;;;;5.00;4.50;;;28.20;40.50;;;;;;5039640;28;20406;-78
2023/07/25 10:48:00;;;;;;;6.67;4.70;;;28.00;41.20;;;;;;5046236;28;20867;-77
2023/07/25 10:50:43;;;;;;;4.70;4.30;;;28.00;41.20;;;;;;5042655;28;20441;-79
2023/07/25 10:53:20;;;;;;;4.37;3.97;;;27.70;42.10;;;;;;5042923;28;20575;-79
2023/07/25 10:56:06;;;;;;;4.87;4.37;;;26.90;42.60;;;;;;5025438;28;20480;-80
2023/07/25 10:59:02;;;;;;;4.77;4.10;;;26.60;44.10;;;;;;5027358;28;20565;-77
2023/07/25 11:01:44;;;;;;;5.20;4.70;;;26.70;43.70;;;;;;5041759;28;20500;-78
2023/07/25 11:04:30;;;;;;;4.27;3.60;;;26.60;44.70;;;;;;5041932;28;20428;-78
2023/07/25 11:07:06;;;;;;;4.33;3.93;;;26.40;44.60;;;;;;5024145;28;20425;-78
2023/07/25 11:09:44;;;;;;;4.20;3.90;;;26.30;44.30;;;;;;5041731;28;20426;-79
2023/07/25 11:12:11;;;;;;;4.27;3.97;;;26.20;44.80;;;;;;5042571;28;20481;-78
2023/07/25 11:14:43;;;;;;;3.40;3.10;;;26.30;44.50;;;;;;5041316;28;20445;-77
2023/07/25 11:17:13;;;;;;;6.40;4.43;;;26.30;44.60;;;;;;5041704;28;20434;-79
2023/07/25 11:19:40;;;;;;;7.70;4.90;;;26.20;44.30;;;;;;5041673;28;20484;-79
2023/07/25 11:22:09;;;;;;;4.00;3.70;;;26.10;44.60;;;;;;5041747;28;20626;-77
2023/07/25 11:24:44;;;;;;;5.40;3.80;;;25.90;44.40;;;;;;5041356;28;20742;-78
2023/07/25 11:27:12;;;;;;;3.90;3.60;;;26.30;45.00;;;;;;5041805;28;20457;-78
2023/07/25 11:29:40;;;;;;;4.20;3.80;;;26.10;44.10;;;;;;5041581;28;20437;-78
2023/07/25 11:32:07;;;;;;;3.40;3.20;;;26.10;44.10;;;;;;5041585;28;20528;-78
2023/07/25 11:34:35;;;;;;;4.27;3.87;;;26.20;43.30;;;;;;5023811;28;20627;-78
2023/07/25 11:37:09;;;;;;;3.77;3.47;;;26.00;44.20;;;;;;5041221;28;20434;-79
2023/07/25 11:39:36;;;;;;;3.30;3.10;;;26.00;44.10;;;;;;5041270;28;20461;-76
2023/07/25 11:42:07;;;;;;;3.50;3.20;;;26.00;44.20;;;;;;5040947;28;20465;-77
2023/07/25 11:44:35;;;;;;;5.43;3.40;;;25.90;43.70;;;;;;5023838;28;20785;-80
2023/07/25 11:47:02;;;;;;;4.20;3.90;;;26.10;43.80;;;;;;5040912;28;20441;-77
2023/07/25 11:49:29;;;;;;;6.47;3.47;;;26.00;44.00;;;;;;5023270;28;20505;-78
2023/07/25 11:52:00;;;;;;;3.77;3.47;;;26.00;43.80;;;;;;5040587;28;20445;-78
2023/07/25 11:54:27;;;;;;;4.10;3.77;;;26.10;44.20;;;;;;5041058;28;20434;-77
2023/07/25 11:56:54;;;;;;;3.97;3.67;;;25.60;45.20;;;;;;5042405;28;20671;-78
2023/07/25 11:59:22;;;;;;;4.33;3.43;;;25.50;45.80;;;;;;5042741;28;20438;-78
2023/07/25 12:01:49;;;;;;;4.33;3.73;;;25.80;45.60;;;;;;5050203;28;20468;-79
2023/07/25 12:04:17;;;;;;;4.13;3.83;;;26.20;44.60;;;;;;5051531;28;20431;-80
2023/07/25 12:06:45;;;;;;;4.20;3.90;;;26.00;45.40;;;;;;5051435;28;20773;-77
2023/07/25 12:09:12;;;;;;;4.43;4.00;;;25.80;45.00;;;;;;5041559;28;20477;-79
2023/07/25 12:11:42;;;;;;;3.67;3.47;;;25.40;45.50;;;;;;5041540;28;20474;-78
2023/07/25 12:14:12;;;;;;;4.57;3.90;;;25.40;46.40;;;;;;5025253;28;20618;-79
2023/07/25 12:16:44;;;;;;;5.30;3.30;;;25.50;46.50;;;;;;5027237;28;20465;-78
2023/07/25 12:19:14;;;;;;;4.27;3.50;;;25.20;46.60;;;;;;5044935;28;20389;-80
2023/07/25 12:21:44;;;;;;;3.60;3.30;;;25.30;46.70;;;;;;5045211;28;20397;-79
2023/07/25 12:24:16;;;;;;;6.53;4.20;;;25.10;46.40;;;;;;5043989;28;20436;-79
2023/07/25 12:26:44;;;;;;;4.37;3.70;;;25.30;46.40;;;;;;5045660;28;20409;-77
2023/07/25 12:29:24;;;;;;;3.90;3.70;;;25.20;46.30;;;;;;5044432;28;20469;-81
2023/07/25 12:31:52;;;;;;;10.03;9.17;;;25.40;46.60;;;;;;5027123;28;20425;-76
2023/07/25 12:34:20;;;;;;;6.90;4.20;;;25.10;47.00;;;;;;5044309;28;20447;-77
2023/07/25 12:36:49;;;;;;;4.13;3.83;;;25.10;47.50;;;;;;5044185;28;20440;-76
2023/07/25 12:39:16;;;;;;;7.90;7.20;;;25.00;47.40;;;;;;5043299;28;20786;-77
2023/07/25 12:41:46;;;;;;;4.43;4.10;;;24.90;47.40;;;;;;5044520;28;20519;-79
2023/07/25 12:44:13;;;;;;;3.90;3.40;;;24.80;47.00;;;;;;5026611;28;20465;-77
2023/07/25 12:46:40;;;;;;;4.17;3.77;;;24.80;47.10;;;;;;5026618;28;20442;-80
2023/07/25 12:49:07;;;;;;;5.00;4.50;;;24.80;47.40;;;;;;5044017;28;20849;-77
2023/07/25 12:51:35;;;;;;;4.27;3.97;;;24.70;47.50;;;;;;5026693;28;20434;-78
2023/07/25 12:54:02;;;;;;;4.80;4.50;;;24.50;47.70;;;;;;5027383;28;20442;-78